sensor_id;sensor_type;location;lat;lon;timestamp;P1;durP1;ratioP1;P2;durP2;ratioP2
62903;SDS011;49000;50.698;13.322;2023-05-24T00:01:14;14.17;;;6.30;;
62903;SDS011;49000;50.698;13.322;2023-05-24T00:03:40;17.73;;;6.20;;
62903;SDS011;49000;50.698;13.322;2023-05-24T00:06:06;13.23;;;5.50;;
62903;SDS011;49000;50.698;13.322;2023-05-24T00:08:32;21.17;;;7.03;;
62903;SDS011;49000;50.698;13.322;2023-05-24T00:10:58;12.83;;;5.90;;
62903;SDS011;49000;50.698;13.322;2023-05-24T00:13:24;11.23;;;5.67;;
62903;SDS011;49000;50.698;13.322;2023-05-24T00:15:50;11.50;;;6.43;;
62903;SDS011;49000;50.698;13.322;2023-05-24T00:18:16;14.43;;;6.00;;
62903;SDS011;49000;50.698;13.322;2023-05-24T00:20:42;12.13;;;5.80;;
62903;SDS011;49000;50.698;13.322;2023-05-24T00:23:08;20.27;;;6.73;;
62903;SDS011;49000;50.698;13.322;2023-05-24T00:25:33;13.33;;;6.30;;
62903;SDS011;49000;50.698;13.322;2023-05-24T00:27:59;15.73;;;6.77;;
62903;SDS011;49000;50.698;13.322;2023-05-24T00:30:25;17.73;;;6.40;;
62903;SDS011;49000;50.698;13.322;2023-05-24T00:32:50;11.67;;;5.83;;
62903;SDS011;49000;50.698;13.322;2023-05-24T00:35:16;18.97;;;6.53;;
62903;SDS011;49000;50.698;13.322;2023-05-24T00:37:41;11.97;;;5.13;;
62903;SDS011;49000;50.698;13.322;2023-05-24T00:40:09;11.33;;;5.87;;
62903;SDS011;49000;50.698;13.322;2023-05-24T00:42:35;12.20;;;6.63;;
62903;SDS011;49000;50.698;13.322;2023-05-24T00:45:01;16.50;;;5.97;;
62903;SDS011;49000;50.698;13.322;2023-05-24T00:47:26;19.83;;;6.57;;
62903;SDS011;49000;50.698;13.322;2023-05-24T00:49:52;18.83;;;6.70;;
62903;SDS011;49000;50.698;13.322;2023-05-24T00:52:17;17.70;;;6.37;;
62903;SDS011;49000;50.698;13.322;2023-05-24T00:54:43;11.47;;;5.63;;
62903;SDS011;49000;50.698;13.322;2023-05-24T00:57:09;17.00;;;6.70;;
62903;SDS011;49000;50.698;13.322;2023-05-24T00:59:37;11.60;;;5.50;;
62903;SDS011;49000;50.698;13.322;2023-05-24T01:02:03;16.37;;;6.87;;
62903;SDS011;49000;50.698;13.322;2023-05-24T01:04:29;13.00;;;5.33;;
62903;SDS011;49000;50.698;13.322;2023-05-24T01:07:17;15.57;;;6.30;;
62903;SDS011;49000;50.698;13.322;2023-05-24T01:12:38;15.77;;;6.50;;
62903;SDS011;49000;50.698;13.322;2023-05-24T01:18:00;9.70;;;5.07;;
62903;SDS011;49000;50.698;13.322;2023-05-24T01:20:32;13.13;;;5.60;;
62903;SDS011;49000;50.698;13.322;2023-05-24T01:23:16;16.87;;;5.87;;
62903;SDS011;49000;50.698;13.322;2023-05-24T01:26:13;12.43;;;5.40;;
62903;SDS011;49000;50.698;13.322;2023-05-24T01:28:46;13.60;;;6.00;;
62903;SDS011;49000;50.698;13.322;2023-05-24T01:31:12;9.67;;;5.53;;
62903;SDS011;49000;50.698;13.322;2023-05-24T01:33:42;16.37;;;6.47;;
62903;SDS011;49000;50.698;13.322;2023-05-24T01:36:08;11.17;;;4.87;;
62903;SDS011;49000;50.698;13.322;2023-05-24T01:38:34;14.10;;;5.23;;
62903;SDS011;49000;50.698;13.322;2023-05-24T01:41:04;13.90;;;5.47;;
62903;SDS011;49000;50.698;13.322;2023-05-24T01:43:42;12.97;;;5.13;;
62903;SDS011;49000;50.698;13.322;2023-05-24T01:46:36;12.20;;;5.03;;
62903;SDS011;49000;50.698;13.322;2023-05-24T01:49:08;9.67;;;4.97;;
62903;SDS011;49000;50.698;13.322;2023-05-24T01:51:48;12.53;;;5.50;;
62903;SDS011;49000;50.698;13.322;2023-05-24T01:54:30;10.73;;;5.47;;
62903;SDS011;49000;50.698;13.322;2023-05-24T01:56:57;12.70;;;5.33;;
62903;SDS011;49000;50.698;13.322;2023-05-24T01:59:23;11.70;;;4.93;;
62903;SDS011;49000;50.698;13.322;2023-05-24T02:01:52;12.87;;;5.90;;
62903;SDS011;49000;50.698;13.322;2023-05-24T02:04:18;15.30;;;6.13;;
62903;SDS011;49000;50.698;13.322;2023-05-24T02:06:44;12.93;;;5.60;;
62903;SDS011;49000;50.698;13.322;2023-05-24T02:09:09;17.20;;;5.53;;
62903;SDS011;49000;50.698;13.322;2023-05-24T02:11:35;12.13;;;6.03;;
62903;SDS011;49000;50.698;13.322;2023-05-24T02:14:00;14.37;;;5.40;;
62903;SDS011;49000;50.698;13.322;2023-05-24T02:16:26;14.27;;;5.70;;
62903;SDS011;49000;50.698;13.322;2023-05-24T02:18:54;13.07;;;5.83;;
62903;SDS011;49000;50.698;13.322;2023-05-24T02:21:20;12.73;;;5.00;;
62903;SDS011;49000;50.698;13.322;2023-05-24T02:23:47;16.50;;;4.93;;
62903;SDS011;49000;50.698;13.322;2023-05-24T02:26:12;15.77;;;5.13;;
62903;SDS011;49000;50.698;13.322;2023-05-24T02:28:38;14.53;;;4.30;;
62903;SDS011;49000;50.698;13.322;2023-05-24T02:31:04;11.97;;;4.23;;
62903;SDS011;49000;50.698;13.322;2023-05-24T02:33:30;15.77;;;5.30;;
62903;SDS011;49000;50.698;13.322;2023-05-24T02:35:55;11.53;;;3.70;;
62903;SDS011;49000;50.698;13.322;2023-05-24T02:38:21;14.47;;;4.33;;
62903;SDS011;49000;50.698;13.322;2023-05-24T02:40:47;15.90;;;3.80;;
62903;SDS011;49000;50.698;13.322;2023-05-24T02:43:12;11.33;;;3.70;;
62903;SDS011;49000;50.698;13.322;2023-05-24T02:45:38;9.03;;;3.47;;
62903;SDS011;49000;50.698;13.322;2023-05-24T02:48:03;12.60;;;3.43;;
62903;SDS011;49000;50.698;13.322;2023-05-24T02:50:30;11.23;;;3.90;;
62903;SDS011;49000;50.698;13.322;2023-05-24T02:52:55;8.57;;;3.03;;
62903;SDS011;49000;50.698;13.322;2023-05-24T02:55:21;10.90;;;3.00;;
62903;SDS011;49000;50.698;13.322;2023-05-24T02:57:46;10.33;;;3.03;;
62903;SDS011;49000;50.698;13.322;2023-05-24T03:00:12;11.00;;;3.33;;
62903;SDS011;49000;50.698;13.322;2023-05-24T03:02:38;10.80;;;3.37;;
62903;SDS011;49000;50.698;13.322;2023-05-24T03:05:05;7.20;;;3.33;;
62903;SDS011;49000;50.698;13.322;2023-05-24T03:07:33;8.33;;;2.37;;
62903;SDS011;49000;50.698;13.322;2023-05-24T03:09:59;9.57;;;3.00;;
62903;SDS011;49000;50.698;13.322;2023-05-24T03:12:24;10.57;;;3.27;;
62903;SDS011;49000;50.698;13.322;2023-05-24T03:14:50;13.47;;;3.53;;
62903;SDS011;49000;50.698;13.322;2023-05-24T03:17:15;8.87;;;2.70;;
62903;SDS011;49000;50.698;13.322;2023-05-24T03:19:41;10.27;;;3.50;;
62903;SDS011;49000;50.698;13.322;2023-05-24T03:22:06;11.43;;;4.03;;
62903;SDS011;49000;50.698;13.322;2023-05-24T03:24:32;9.10;;;3.27;;
62903;SDS011;49000;50.698;13.322;2023-05-24T03:26:58;10.30;;;4.03;;
62903;SDS011;49000;50.698;13.322;2023-05-24T03:29:23;13.47;;;3.30;;
62903;SDS011;49000;50.698;13.322;2023-05-24T03:31:49;10.03;;;3.33;;
62903;SDS011;49000;50.698;13.322;2023-05-24T03:34:14;10.87;;;3.50;;
62903;SDS011;49000;50.698;13.322;2023-05-24T03:36:40;12.33;;;3.90;;
62903;SDS011;49000;50.698;13.322;2023-05-24T03:39:06;15.70;;;3.80;;
62903;SDS011;49000;50.698;13.322;2023-05-24T03:41:31;18.37;;;4.30;;
62903;SDS011;49000;50.698;13.322;2023-05-24T03:43:58;15.30;;;4.43;;
62903;SDS011;49000;50.698;13.322;2023-05-24T03:46:23;11.40;;;3.90;;
62903;SDS011;49000;50.698;13.322;2023-05-24T03:48:49;11.97;;;4.27;;
62903;SDS011;49000;50.698;13.322;2023-05-24T03:51:14;17.57;;;4.87;;
62903;SDS011;49000;50.698;13.322;2023-05-24T03:53:40;9.13;;;3.60;;
62903;SDS011;49000;50.698;13.322;2023-05-24T03:56:05;13.97;;;4.13;;
62903;SDS011;49000;50.698;13.322;2023-05-24T03:58:31;13.00;;;4.07;;
62903;SDS011;49000;50.698;13.322;2023-05-24T04:00:56;13.77;;;3.93;;
62903;SDS011;49000;50.698;13.322;2023-05-24T04:03:22;11.93;;;3.37;;
62903;SDS011;49000;50.698;13.322;2023-05-24T04:05:49;11.77;;;3.63;;
62903;SDS011;49000;50.698;13.322;2023-05-24T04:08:15;8.77;;;3.90;;
62903;SDS011;49000;50.698;13.322;2023-05-24T04:10:41;13.40;;;4.33;;
62903;SDS011;49000;50.698;13.322;2023-05-24T04:13:07;11.43;;;5.00;;
62903;SDS011;49000;50.698;13.322;2023-05-24T04:15:32;10.93;;;4.30;;
62903;SDS011;49000;50.698;13.322;2023-05-24T04:17:58;12.27;;;4.07;;
62903;SDS011;49000;50.698;13.322;2023-05-24T04:20:24;12.43;;;4.07;;
62903;SDS011;49000;50.698;13.322;2023-05-24T04:22:51;12.07;;;4.67;;
62903;SDS011;49000;50.698;13.322;2023-05-24T04:25:17;12.17;;;4.20;;
62903;SDS011;49000;50.698;13.322;2023-05-24T04:27:43;8.60;;;4.73;;
62903;SDS011;49000;50.698;13.322;2023-05-24T04:30:08;11.67;;;4.27;;
62903;SDS011;49000;50.698;13.322;2023-05-24T04:32:34;15.07;;;4.70;;
62903;SDS011;49000;50.698;13.322;2023-05-24T04:35:00;11.57;;;4.83;;
62903;SDS011;49000;50.698;13.322;2023-05-24T04:37:29;18.90;;;5.20;;
62903;SDS011;49000;50.698;13.322;2023-05-24T04:39:55;10.23;;;4.83;;
62903;SDS011;49000;50.698;13.322;2023-05-24T04:42:21;11.13;;;4.73;;
62903;SDS011;49000;50.698;13.322;2023-05-24T04:44:47;9.77;;;4.83;;
62903;SDS011;49000;50.698;13.322;2023-05-24T04:47:12;15.37;;;5.73;;
62903;SDS011;49000;50.698;13.322;2023-05-24T04:49:38;10.73;;;4.93;;
62903;SDS011;49000;50.698;13.322;2023-05-24T04:52:04;12.10;;;4.93;;
62903;SDS011;49000;50.698;13.322;2023-05-24T04:54:30;11.60;;;5.13;;
62903;SDS011;49000;50.698;13.322;2023-05-24T04:56:56;12.33;;;5.93;;
62903;SDS011;49000;50.698;13.322;2023-05-24T04:59:21;13.83;;;5.67;;
62903;SDS011;49000;50.698;13.322;2023-05-24T05:01:47;13.53;;;6.17;;
62903;SDS011;49000;50.698;13.322;2023-05-24T05:04:12;16.93;;;6.57;;
62903;SDS011;49000;50.698;13.322;2023-05-24T05:06:38;15.27;;;6.63;;
62903;SDS011;49000;50.698;13.322;2023-05-24T05:09:05;14.77;;;5.80;;
62903;SDS011;49000;50.698;13.322;2023-05-24T05:11:36;15.20;;;6.27;;
62903;SDS011;49000;50.698;13.322;2023-05-24T05:14:02;13.07;;;6.20;;
62903;SDS011;49000;50.698;13.322;2023-05-24T05:16:28;14.60;;;5.77;;
62903;SDS011;49000;50.698;13.322;2023-05-24T05:18:53;10.67;;;6.00;;
62903;SDS011;49000;50.698;13.322;2023-05-24T05:21:19;15.93;;;6.00;;
62903;SDS011;49000;50.698;13.322;2023-05-24T05:23:44;13.87;;;6.23;;
62903;SDS011;49000;50.698;13.322;2023-05-24T05:26:10;9.57;;;5.60;;
62903;SDS011;49000;50.698;13.322;2023-05-24T05:28:36;17.73;;;6.37;;
62903;SDS011;49000;50.698;13.322;2023-05-24T05:31:01;19.13;;;5.87;;
62903;SDS011;49000;50.698;13.322;2023-05-24T05:33:27;10.97;;;5.80;;
62903;SDS011;49000;50.698;13.322;2023-05-24T05:35:54;13.40;;;5.87;;
62903;SDS011;49000;50.698;13.322;2023-05-24T05:38:19;16.80;;;6.03;;
62903;SDS011;49000;50.698;13.322;2023-05-24T05:40:45;12.47;;;5.43;;
62903;SDS011;49000;50.698;13.322;2023-05-24T05:43:10;14.07;;;5.13;;
62903;SDS011;49000;50.698;13.322;2023-05-24T05:45:36;12.53;;;5.47;;
62903;SDS011;49000;50.698;13.322;2023-05-24T05:48:01;13.23;;;5.27;;
62903;SDS011;49000;50.698;13.322;2023-05-24T05:50:27;11.50;;;4.93;;
62903;SDS011;49000;50.698;13.322;2023-05-24T05:52:52;16.57;;;5.63;;
62903;SDS011;49000;50.698;13.322;2023-05-24T05:55:18;12.53;;;4.77;;
62903;SDS011;49000;50.698;13.322;2023-05-24T05:57:43;14.60;;;4.60;;
62903;SDS011;49000;50.698;13.322;2023-05-24T06:00:09;15.07;;;5.17;;
62903;SDS011;49000;50.698;13.322;2023-05-24T06:02:35;11.27;;;4.43;;
62903;SDS011;49000;50.698;13.322;2023-05-24T06:05:00;12.90;;;4.73;;
62903;SDS011;49000;50.698;13.322;2023-05-24T06:07:26;10.73;;;4.77;;
62903;SDS011;49000;50.698;13.322;2023-05-24T06:09:52;15.03;;;5.00;;
62903;SDS011;49000;50.698;13.322;2023-05-24T06:12:18;11.07;;;4.10;;
62903;SDS011;49000;50.698;13.322;2023-05-24T06:14:43;12.40;;;4.30;;
62903;SDS011;49000;50.698;13.322;2023-05-24T06:17:09;11.60;;;4.30;;
62903;SDS011;49000;50.698;13.322;2023-05-24T06:19:35;15.33;;;4.70;;
62903;SDS011;49000;50.698;13.322;2023-05-24T06:22:00;10.10;;;4.30;;
62903;SDS011;49000;50.698;13.322;2023-05-24T06:24:26;12.60;;;4.50;;
62903;SDS011;49000;50.698;13.322;2023-05-24T06:26:52;17.20;;;4.47;;
62903;SDS011;49000;50.698;13.322;2023-05-24T06:29:18;14.87;;;4.17;;
62903;SDS011;49000;50.698;13.322;2023-05-24T06:31:45;13.27;;;4.30;;
62903;SDS011;49000;50.698;13.322;2023-05-24T06:34:11;11.83;;;3.70;;
62903;SDS011;49000;50.698;13.322;2023-05-24T06:36:37;12.03;;;4.80;;
62903;SDS011;49000;50.698;13.322;2023-05-24T06:39:07;12.33;;;5.37;;
62903;SDS011;49000;50.698;13.322;2023-05-24T06:41:33;10.90;;;4.30;;
62903;SDS011;49000;50.698;13.322;2023-05-24T06:43:59;12.60;;;4.70;;
62903;SDS011;49000;50.698;13.322;2023-05-24T06:46:24;8.53;;;4.20;;
62903;SDS011;49000;50.698;13.322;2023-05-24T06:48:50;10.87;;;4.00;;
62903;SDS011;49000;50.698;13.322;2023-05-24T06:51:15;11.23;;;4.40;;
62903;SDS011;49000;50.698;13.322;2023-05-24T06:53:41;10.97;;;4.10;;
62903;SDS011;49000;50.698;13.322;2023-05-24T06:56:06;12.07;;;4.07;;
62903;SDS011;49000;50.698;13.322;2023-05-24T06:58:33;10.13;;;3.97;;
62903;SDS011;49000;50.698;13.322;2023-05-24T07:00:59;13.90;;;3.97;;
62903;SDS011;49000;50.698;13.322;2023-05-24T07:03:25;17.10;;;4.53;;
62903;SDS011;49000;50.698;13.322;2023-05-24T07:05:50;7.40;;;3.10;;
62903;SDS011;49000;50.698;13.322;2023-05-24T07:08:16;15.63;;;4.33;;
62903;SDS011;49000;50.698;13.322;2023-05-24T07:10:42;13.87;;;3.57;;
62903;SDS011;49000;50.698;13.322;2023-05-24T07:13:08;11.83;;;4.43;;
62903;SDS011;49000;50.698;13.322;2023-05-24T07:15:39;13.20;;;3.30;;
62903;SDS011;49000;50.698;13.322;2023-05-24T07:18:07;10.10;;;3.07;;
62903;SDS011;49000;50.698;13.322;2023-05-24T07:20:33;12.77;;;3.40;;
62903;SDS011;49000;50.698;13.322;2023-05-24T07:22:59;9.93;;;3.27;;
62903;SDS011;49000;50.698;13.322;2023-05-24T07:25:25;9.80;;;3.30;;
62903;SDS011;49000;50.698;13.322;2023-05-24T07:27:50;9.57;;;3.27;;
62903;SDS011;49000;50.698;13.322;2023-05-24T07:30:16;9.93;;;3.00;;
62903;SDS011;49000;50.698;13.322;2023-05-24T07:32:41;10.30;;;2.70;;
62903;SDS011;49000;50.698;13.322;2023-05-24T07:35:07;12.97;;;3.70;;
62903;SDS011;49000;50.698;13.322;2023-05-24T07:37:36;11.70;;;2.93;;
62903;SDS011;49000;50.698;13.322;2023-05-24T07:40:02;10.53;;;3.47;;
62903;SDS011;49000;50.698;13.322;2023-05-24T07:42:29;19.67;;;4.33;;
62903;SDS011;49000;50.698;13.322;2023-05-24T07:44:55;8.40;;;3.60;;
62903;SDS011;49000;50.698;13.322;2023-05-24T07:47:20;10.43;;;3.37;;
62903;SDS011;49000;50.698;13.322;2023-05-24T07:49:46;16.77;;;3.60;;
62903;SDS011;49000;50.698;13.322;2023-05-24T07:52:11;15.10;;;4.13;;
62903;SDS011;49000;50.698;13.322;2023-05-24T07:54:37;12.37;;;3.53;;
62903;SDS011;49000;50.698;13.322;2023-05-24T07:57:02;11.83;;;3.33;;
62903;SDS011;49000;50.698;13.322;2023-05-24T07:59:28;11.97;;;3.40;;
62903;SDS011;49000;50.698;13.322;2023-05-24T08:01:54;9.63;;;3.50;;
62903;SDS011;49000;50.698;13.322;2023-05-24T08:04:25;10.57;;;3.33;;
62903;SDS011;49000;50.698;13.322;2023-05-24T08:06:50;14.23;;;3.40;;
62903;SDS011;49000;50.698;13.322;2023-05-24T08:09:16;11.50;;;3.60;;
62903;SDS011;49000;50.698;13.322;2023-05-24T08:11:41;13.37;;;3.83;;
62903;SDS011;49000;50.698;13.322;2023-05-24T08:14:07;10.73;;;3.33;;
62903;SDS011;49000;50.698;13.322;2023-05-24T08:16:32;14.80;;;4.90;;
62903;SDS011;49000;50.698;13.322;2023-05-24T08:18:58;11.33;;;4.00;;
62903;SDS011;49000;50.698;13.322;2023-05-24T08:21:23;15.13;;;4.60;;
62903;SDS011;49000;50.698;13.322;2023-05-24T08:23:49;12.73;;;4.20;;
62903;SDS011;49000;50.698;13.322;2023-05-24T08:26:15;16.10;;;4.50;;
62903;SDS011;49000;50.698;13.322;2023-05-24T08:28:43;13.07;;;4.37;;
62903;SDS011;49000;50.698;13.322;2023-05-24T08:31:08;14.77;;;4.90;;
62903;SDS011;49000;50.698;13.322;2023-05-24T08:33:34;15.97;;;4.90;;
62903;SDS011;49000;50.698;13.322;2023-05-24T08:35:59;17.73;;;4.67;;
62903;SDS011;49000;50.698;13.322;2023-05-24T08:38:25;12.30;;;4.73;;
62903;SDS011;49000;50.698;13.322;2023-05-24T08:40:50;15.67;;;5.37;;
62903;SDS011;49000;50.698;13.322;2023-05-24T08:43:16;15.07;;;4.97;;
62903;SDS011;49000;50.698;13.322;2023-05-24T08:45:43;14.13;;;5.23;;
62903;SDS011;49000;50.698;13.322;2023-05-24T08:48:09;11.83;;;5.10;;
62903;SDS011;49000;50.698;13.322;2023-05-24T08:50:37;14.90;;;5.13;;
62903;SDS011;49000;50.698;13.322;2023-05-24T08:53:02;14.30;;;4.83;;
62903;SDS011;49000;50.698;13.322;2023-05-24T08:55:31;17.40;;;4.97;;
62903;SDS011;49000;50.698;13.322;2023-05-24T08:57:57;11.53;;;4.67;;
62903;SDS011;49000;50.698;13.322;2023-05-24T09:00:24;12.10;;;4.50;;
62903;SDS011;49000;50.698;13.322;2023-05-24T09:02:50;12.70;;;5.17;;
62903;SDS011;49000;50.698;13.322;2023-05-24T09:05:16;12.87;;;5.30;;
62903;SDS011;49000;50.698;13.322;2023-05-24T09:07:45;15.63;;;4.53;;
62903;SDS011;49000;50.698;13.322;2023-05-24T09:10:13;12.67;;;5.30;;
62903;SDS011;49000;50.698;13.322;2023-05-24T09:12:39;17.63;;;5.03;;
62903;SDS011;49000;50.698;13.322;2023-05-24T09:15:12;16.97;;;5.57;;
62903;SDS011;49000;50.698;13.322;2023-05-24T09:17:38;12.83;;;4.97;;
62903;SDS011;49000;50.698;13.322;2023-05-24T09:20:05;13.30;;;4.87;;
62903;SDS011;49000;50.698;13.322;2023-05-24T09:22:33;15.47;;;4.50;;
62903;SDS011;49000;50.698;13.322;2023-05-24T09:25:02;11.47;;;4.30;;
62903;SDS011;49000;50.698;13.322;2023-05-24T09:27:30;14.00;;;4.77;;
62903;SDS011;49000;50.698;13.322;2023-05-24T09:29:56;13.70;;;4.20;;
62903;SDS011;49000;50.698;13.322;2023-05-24T09:32:22;10.23;;;4.20;;
62903;SDS011;49000;50.698;13.322;2023-05-24T09:34:49;19.77;;;5.40;;
62903;SDS011;49000;50.698;13.322;2023-05-24T09:37:17;16.37;;;4.70;;
62903;SDS011;49000;50.698;13.322;2023-05-24T09:39:45;10.70;;;4.93;;
62903;SDS011;49000;50.698;13.322;2023-05-24T09:42:25;14.20;;;4.43;;
62903;SDS011;49000;50.698;13.322;2023-05-24T09:45:07;14.23;;;4.30;;
62903;SDS011;49000;50.698;13.322;2023-05-24T09:47:35;11.73;;;4.43;;
62903;SDS011;49000;50.698;13.322;2023-05-24T09:50:02;13.20;;;4.63;;
62903;SDS011;49000;50.698;13.322;2023-05-24T09:52:30;11.70;;;4.67;;
62903;SDS011;49000;50.698;13.322;2023-05-24T09:54:59;16.50;;;4.40;;
62903;SDS011;49000;50.698;13.322;2023-05-24T09:57:35;13.67;;;4.13;;
62903;SDS011;49000;50.698;13.322;2023-05-24T10:00:03;14.63;;;4.93;;
62903;SDS011;49000;50.698;13.322;2023-05-24T10:02:32;13.33;;;4.43;;
62903;SDS011;49000;50.698;13.322;2023-05-24T10:05:00;17.50;;;4.57;;
62903;SDS011;49000;50.698;13.322;2023-05-24T10:07:27;13.60;;;4.27;;
62903;SDS011;49000;50.698;13.322;2023-05-24T10:09:53;11.30;;;4.60;;
62903;SDS011;49000;50.698;13.322;2023-05-24T10:12:19;12.50;;;4.00;;
62903;SDS011;49000;50.698;13.322;2023-05-24T10:14:47;13.80;;;4.77;;
62903;SDS011;49000;50.698;13.322;2023-05-24T10:17:14;14.27;;;4.27;;
62903;SDS011;49000;50.698;13.322;2023-05-24T10:19:40;13.33;;;3.97;;
62903;SDS011;49000;50.698;13.322;2023-05-24T10:22:06;14.37;;;5.20;;
62903;SDS011;49000;50.698;13.322;2023-05-24T10:24:37;10.70;;;4.00;;
62903;SDS011;49000;50.698;13.322;2023-05-24T10:27:06;11.77;;;4.10;;
62903;SDS011;49000;50.698;13.322;2023-05-24T10:32:12;14.73;;;4.20;;
62903;SDS011;49000;50.698;13.322;2023-05-24T10:34:40;13.83;;;3.97;;
62903;SDS011;49000;50.698;13.322;2023-05-24T10:37:07;15.90;;;3.93;;
62903;SDS011;49000;50.698;13.322;2023-05-24T10:39:33;16.27;;;4.10;;
62903;SDS011;49000;50.698;13.322;2023-05-24T10:42:02;12.13;;;3.83;;
62903;SDS011;49000;50.698;13.322;2023-05-24T10:44:29;14.70;;;3.73;;
62903;SDS011;49000;50.698;13.322;2023-05-24T10:47:08;16.93;;;4.27;;
62903;SDS011;49000;50.698;13.322;2023-05-24T10:49:36;12.43;;;4.93;;
62903;SDS011;49000;50.698;13.322;2023-05-24T10:52:07;11.73;;;4.20;;
62903;SDS011;49000;50.698;13.322;2023-05-24T10:54:34;13.57;;;4.20;;
62903;SDS011;49000;50.698;13.322;2023-05-24T10:57:02;11.63;;;4.27;;
62903;SDS011;49000;50.698;13.322;2023-05-24T10:59:33;10.27;;;3.77;;
62903;SDS011;49000;50.698;13.322;2023-05-24T11:02:04;11.33;;;4.03;;
62903;SDS011;49000;50.698;13.322;2023-05-24T11:04:36;13.93;;;4.33;;
62903;SDS011;49000;50.698;13.322;2023-05-24T11:07:04;17.13;;;4.80;;
62903;SDS011;49000;50.698;13.322;2023-05-24T11:09:33;11.63;;;4.50;;
62903;SDS011;49000;50.698;13.322;2023-05-24T11:12:00;14.27;;;4.27;;
62903;SDS011;49000;50.698;13.322;2023-05-24T11:14:33;13.10;;;4.50;;
62903;SDS011;49000;50.698;13.322;2023-05-24T11:17:01;13.03;;;4.20;;
62903;SDS011;49000;50.698;13.322;2023-05-24T11:19:32;22.23;;;4.73;;
62903;SDS011;49000;50.698;13.322;2023-05-24T11:21:59;15.97;;;4.93;;
62903;SDS011;49000;50.698;13.322;2023-05-24T11:24:26;15.47;;;4.47;;
62903;SDS011;49000;50.698;13.322;2023-05-24T11:26:53;10.13;;;4.20;;
62903;SDS011;49000;50.698;13.322;2023-05-24T11:29:20;14.87;;;4.90;;
62903;SDS011;49000;50.698;13.322;2023-05-24T11:31:53;9.63;;;4.20;;
62903;SDS011;49000;50.698;13.322;2023-05-24T11:34:28;9.53;;;4.20;;
62903;SDS011;49000;50.698;13.322;2023-05-24T11:36:55;14.20;;;4.97;;
62903;SDS011;49000;50.698;13.322;2023-05-24T11:39:22;13.03;;;4.50;;
62903;SDS011;49000;50.698;13.322;2023-05-24T11:41:52;11.30;;;4.30;;
62903;SDS011;49000;50.698;13.322;2023-05-24T11:44:18;15.73;;;4.40;;
62903;SDS011;49000;50.698;13.322;2023-05-24T11:46:43;10.83;;;4.23;;
62903;SDS011;49000;50.698;13.322;2023-05-24T11:49:13;12.23;;;4.47;;
62903;SDS011;49000;50.698;13.322;2023-05-24T11:51:40;10.97;;;4.60;;
62903;SDS011;49000;50.698;13.322;2023-05-24T11:54:06;8.57;;;4.13;;
62903;SDS011;49000;50.698;13.322;2023-05-24T11:56:32;12.40;;;4.20;;
62903;SDS011;49000;50.698;13.322;2023-05-24T12:01:45;12.37;;;4.70;;
62903;SDS011;49000;50.698;13.322;2023-05-24T12:04:10;9.43;;;4.10;;
62903;SDS011;49000;50.698;13.322;2023-05-24T12:06:37;13.47;;;4.37;;
62903;SDS011;49000;50.698;13.322;2023-05-24T12:09:04;12.27;;;4.10;;
62903;SDS011;49000;50.698;13.322;2023-05-24T12:11:32;11.30;;;4.40;;
62903;SDS011;49000;50.698;13.322;2023-05-24T12:13:59;13.27;;;4.40;;
62903;SDS011;49000;50.698;13.322;2023-05-24T12:16:25;13.03;;;4.50;;
62903;SDS011;49000;50.698;13.322;2023-05-24T12:18:53;9.97;;;3.97;;
62903;SDS011;49000;50.698;13.322;2023-05-24T12:21:19;11.57;;;4.03;;
62903;SDS011;49000;50.698;13.322;2023-05-24T12:23:46;15.13;;;3.40;;
62903;SDS011;49000;50.698;13.322;2023-05-24T12:26:12;12.43;;;3.40;;
62903;SDS011;49000;50.698;13.322;2023-05-24T12:28:38;10.67;;;3.90;;
62903;SDS011;49000;50.698;13.322;2023-05-24T12:31:04;11.70;;;3.58;;
62903;SDS011;49000;50.698;13.322;2023-05-24T12:33:29;10.27;;;3.90;;
62903;SDS011;49000;50.698;13.322;2023-05-24T12:35:56;13.10;;;4.40;;
62903;SDS011;49000;50.698;13.322;2023-05-24T12:38:23;13.07;;;4.47;;
62903;SDS011;49000;50.698;13.322;2023-05-24T12:40:49;13.53;;;4.10;;
62903;SDS011;49000;50.698;13.322;2023-05-24T12:43:18;11.27;;;3.93;;
62903;SDS011;49000;50.698;13.322;2023-05-24T12:45:44;10.10;;;4.27;;
62903;SDS011;49000;50.698;13.322;2023-05-24T12:48:10;39.43;;;5.10;;
62903;SDS011;49000;50.698;13.322;2023-05-24T12:50:36;11.70;;;4.10;;
62903;SDS011;49000;50.698;13.322;2023-05-24T12:53:02;11.07;;;3.67;;
62903;SDS011;49000;50.698;13.322;2023-05-24T12:55:28;16.20;;;4.47;;
62903;SDS011;49000;50.698;13.322;2023-05-24T12:57:54;13.70;;;4.37;;
62903;SDS011;49000;50.698;13.322;2023-05-24T13:00:21;14.53;;;4.03;;
62903;SDS011;49000;50.698;13.322;2023-05-24T13:02:48;12.30;;;4.03;;
62903;SDS011;49000;50.698;13.322;2023-05-24T13:05:16;10.98;;;4.05;;
62903;SDS011;49000;50.698;13.322;2023-05-24T13:07:43;12.90;;;4.35;;
62903;SDS011;49000;50.698;13.322;2023-05-24T13:10:09;10.50;;;3.70;;
62903;SDS011;49000;50.698;13.322;2023-05-24T13:12:35;11.73;;;3.65;;
62903;SDS011;49000;50.698;13.322;2023-05-24T13:15:01;12.30;;;4.38;;
62903;SDS011;49000;50.698;13.322;2023-05-24T13:17:27;11.35;;;4.28;;
62903;SDS011;49000;50.698;13.322;2023-05-24T13:19:53;12.23;;;4.25;;
62903;SDS011;49000;50.698;13.322;2023-05-24T13:22:19;10.43;;;3.80;;
62903;SDS011;49000;50.698;13.322;2023-05-24T13:24:44;9.10;;;4.18;;
62903;SDS011;49000;50.698;13.322;2023-05-24T13:27:10;12.68;;;4.10;;
62903;SDS011;49000;50.698;13.322;2023-05-24T13:29:36;11.32;;;3.72;;
62903;SDS011;49000;50.698;13.322;2023-05-24T13:32:02;11.27;;;3.92;;
62903;SDS011;49000;50.698;13.322;2023-05-24T13:34:27;14.98;;;4.13;;
62903;SDS011;49000;50.698;13.322;2023-05-24T13:36:53;9.30;;;3.88;;
62903;SDS011;49000;50.698;13.322;2023-05-24T13:39:19;10.75;;;3.38;;
62903;SDS011;49000;50.698;13.322;2023-05-24T13:41:45;9.40;;;3.47;;
62903;SDS011;49000;50.698;13.322;2023-05-24T13:44:14;8.27;;;3.15;;
62903;SDS011;49000;50.698;13.322;2023-05-24T13:46:41;8.38;;;3.42;;
62903;SDS011;49000;50.698;13.322;2023-05-24T13:49:07;12.02;;;4.53;;
62903;SDS011;49000;50.698;13.322;2023-05-24T13:51:35;11.32;;;4.13;;
62903;SDS011;49000;50.698;13.322;2023-05-24T13:54:01;15.00;;;4.13;;
62903;SDS011;49000;50.698;13.322;2023-05-24T13:56:27;10.52;;;3.72;;
62903;SDS011;49000;50.698;13.322;2023-05-24T13:58:57;10.75;;;3.30;;
62903;SDS011;49000;50.698;13.322;2023-05-24T14:01:23;10.57;;;3.97;;
62903;SDS011;49000;50.698;13.322;2023-05-24T14:03:49;9.75;;;3.72;;
62903;SDS011;49000;50.698;13.322;2023-05-24T14:06:14;11.57;;;3.78;;
62903;SDS011;49000;50.698;13.322;2023-05-24T14:08:40;8.60;;;3.70;;
62903;SDS011;49000;50.698;13.322;2023-05-24T14:11:06;11.57;;;3.45;;
62903;SDS011;49000;50.698;13.322;2023-05-24T14:13:31;11.02;;;3.70;;
62903;SDS011;49000;50.698;13.322;2023-05-24T14:15:57;12.02;;;4.35;;
62903;SDS011;49000;50.698;13.322;2023-05-24T14:18:22;12.02;;;3.90;;
62903;SDS011;49000;50.698;13.322;2023-05-24T14:20:48;14.77;;;4.47;;
62903;SDS011;49000;50.698;13.322;2023-05-24T14:23:13;11.48;;;4.05;;
62903;SDS011;49000;50.698;13.322;2023-05-24T14:25:40;6.88;;;2.92;;
62903;SDS011;49000;50.698;13.322;2023-05-24T14:28:06;8.45;;;3.03;;
62903;SDS011;49000;50.698;13.322;2023-05-24T14:30:32;9.20;;;3.75;;
62903;SDS011;49000;50.698;13.322;2023-05-24T14:32:58;6.38;;;3.38;;